sensor_id;sensor_type;location;lat;lon;timestamp;pressure;altitude;pressure_sealevel;temperature;humidity
33795;BME280;51430;52.242;21.118;2023-03-25T00:01:33;99131.12;;;12.03;89.36
33795;BME280;51430;52.242;21.118;2023-03-25T00:04:04;99121.13;;;12.07;89.22
33795;BME280;51430;52.242;21.118;2023-03-25T00:06:33;99113.36;;;12.07;89.38
33795;BME280;51430;52.242;21.118;2023-03-25T00:09:02;99113.39;;;12.06;89.82
33795;BME280;51430;52.242;21.118;2023-03-25T00:11:31;99113.59;;;12.02;90.03
33795;BME280;51430;52.242;21.118;2023-03-25T00:13:59;99120.33;;;11.98;89.93
33795;BME280;51430;52.242;21.118;2023-03-25T00:16:27;99118.29;;;11.99;89.87
33795;BME280;51430;52.242;21.118;2023-03-25T00:18:55;99111.95;;;11.99;89.91
33795;BME280;51430;52.242;21.118;2023-03-25T00:21:26;99110.78;;;11.98;89.79
33795;BME280;51430;52.242;21.118;2023-03-25T00:23:55;99107.59;;;11.94;89.85
33795;BME280;51430;52.242;21.118;2023-03-25T00:26:22;99101.45;;;11.92;90.24
33795;BME280;51430;52.242;21.118;2023-03-25T00:28:50;99104.75;;;11.87;90.41
33795;BME280;51430;52.242;21.118;2023-03-25T00:31:18;99111.61;;;11.89;90.22
33795;BME280;51430;52.242;21.118;2023-03-25T00:33:53;99102.95;;;11.87;90.10
33795;BME280;51430;52.242;21.118;2023-03-25T00:36:21;99100.58;;;11.84;90.26
33795;BME280;51430;52.242;21.118;2023-03-25T00:38:49;99104.61;;;11.84;90.26
33795;BME280;51430;52.242;21.118;2023-03-25T00:41:20;99117.98;;;11.81;90.22
33795;BME280;51430;52.242;21.118;2023-03-25T00:43:52;99122.34;;;11.81;90.15
33795;BME280;51430;52.242;21.118;2023-03-25T00:46:22;99109.55;;;11.80;90.20
33795;BME280;51430;52.242;21.118;2023-03-25T00:48:50;99117.30;;;11.79;90.27
33795;BME280;51430;52.242;21.118;2023-03-25T00:51:20;99110.84;;;11.76;89.83
33795;BME280;51430;52.242;21.118;2023-03-25T00:53:50;99112.27;;;11.78;89.96
33795;BME280;51430;52.242;21.118;2023-03-25T00:56:20;99119.80;;;11.72;89.91
33795;BME280;51430;52.242;21.118;2023-03-25T00:58:49;99117.20;;;11.68;89.91
33795;BME280;51430;52.242;21.118;2023-03-25T01:01:20;99124.06;;;11.64;89.86
33795;BME280;51430;52.242;21.118;2023-03-25T01:03:56;99124.63;;;11.65;90.27
33795;BME280;51430;52.242;21.118;2023-03-25T01:06:33;99121.55;;;11.61;90.19
33795;BME280;51430;52.242;21.118;2023-03-25T01:09:05;99121.40;;;11.62;90.17
33795;BME280;51430;52.242;21.118;2023-03-25T01:11:33;99113.08;;;11.55;90.27
33795;BME280;51430;52.242;21.118;2023-03-25T01:14:04;99113.46;;;11.54;90.55
33795;BME280;51430;52.242;21.118;2023-03-25T01:16:33;99119.30;;;11.48;90.40
33795;BME280;51430;52.242;21.118;2023-03-25T01:19:01;99118.85;;;11.44;90.70
33795;BME280;51430;52.242;21.118;2023-03-25T01:21:29;99120.86;;;11.42;90.58
33795;BME280;51430;52.242;21.118;2023-03-25T01:24:00;99115.42;;;11.42;90.30
33795;BME280;51430;52.242;21.118;2023-03-25T01:26:28;99116.71;;;11.39;90.24
33795;BME280;51430;52.242;21.118;2023-03-25T01:28:56;99112.02;;;11.30;90.53
33795;BME280;51430;52.242;21.118;2023-03-25T01:31:24;99115.77;;;11.26;90.57
33795;BME280;51430;52.242;21.118;2023-03-25T01:33:58;99121.92;;;11.22;90.78
33795;BME280;51430;52.242;21.118;2023-03-25T01:36:27;99122.08;;;11.19;91.00
33795;BME280;51430;52.242;21.118;2023-03-25T01:38:59;99119.91;;;11.14;91.17
33795;BME280;51430;52.242;21.118;2023-03-25T01:41:28;99111.68;;;11.06;91.31
33795;BME280;51430;52.242;21.118;2023-03-25T01:46:41;99110.65;;;11.01;91.53
33795;BME280;51430;52.242;21.118;2023-03-25T01:49:16;99111.34;;;10.95;91.41
33795;BME280;51430;52.242;21.118;2023-03-25T01:51:51;99111.49;;;10.90;91.70
33795;BME280;51430;52.242;21.118;2023-03-25T01:54:20;99108.05;;;10.85;92.05
33795;BME280;51430;52.242;21.118;2023-03-25T01:56:49;99103.67;;;10.79;92.36
33795;BME280;51430;52.242;21.118;2023-03-25T01:59:22;99097.72;;;10.76;92.40
33795;BME280;51430;52.242;21.118;2023-03-25T02:01:55;99099.88;;;10.70;92.79
33795;BME280;51430;52.242;21.118;2023-03-25T02:04:39;99099.70;;;10.64;93.04
33795;BME280;51430;52.242;21.118;2023-03-25T02:07:09;99104.66;;;10.58;93.06
33795;BME280;51430;52.242;21.118;2023-03-25T02:09:38;99111.13;;;10.53;93.52
33795;BME280;51430;52.242;21.118;2023-03-25T02:12:06;99115.86;;;10.49;93.76
33795;BME280;51430;52.242;21.118;2023-03-25T02:14:35;99120.13;;;10.48;93.81
33795;BME280;51430;52.242;21.118;2023-03-25T02:28:48;99111.56;;;10.27;94.89
33795;BME280;51430;52.242;21.118;2023-03-25T02:37:44;99101.59;;;10.09;95.66
33795;BME280;51430;52.242;21.118;2023-03-25T02:40:26;99098.77;;;10.05;95.62
33795;BME280;51430;52.242;21.118;2023-03-25T02:43:01;99095.15;;;10.03;95.98
33795;BME280;51430;52.242;21.118;2023-03-25T02:45:36;99092.77;;;10.06;96.20
33795;BME280;51430;52.242;21.118;2023-03-25T02:48:11;99099.63;;;10.07;95.90
33795;BME280;51430;52.242;21.118;2023-03-25T02:50:50;99107.96;;;10.08;95.97
33795;BME280;51430;52.242;21.118;2023-03-25T02:53:25;99111.04;;;10.04;95.95
33795;BME280;51430;52.242;21.118;2023-03-25T02:56:00;99112.52;;;10.02;96.18
33795;BME280;51430;52.242;21.118;2023-03-25T02:58:29;99114.68;;;9.99;96.20
33795;BME280;51430;52.242;21.118;2023-03-25T03:00:58;99113.63;;;9.99;96.14
33795;BME280;51430;52.242;21.118;2023-03-25T03:03:27;99106.77;;;9.96;96.22
33795;BME280;51430;52.242;21.118;2023-03-25T03:05:58;99109.95;;;9.92;96.41
33795;BME280;51430;52.242;21.118;2023-03-25T03:11:28;99108.72;;;9.86;96.56
33795;BME280;51430;52.242;21.118;2023-03-25T03:25:03;99125.73;;;9.74;97.19
33795;BME280;51430;52.242;21.118;2023-03-25T03:27:45;99125.77;;;9.79;97.16
33795;BME280;51430;52.242;21.118;2023-03-25T03:30:27;99129.45;;;9.77;96.97
33795;BME280;51430;52.242;21.118;2023-03-25T03:33:36;99127.73;;;9.76;96.96
33795;BME280;51430;52.242;21.118;2023-03-25T03:36:13;99131.52;;;9.69;97.22
33795;BME280;51430;52.242;21.118;2023-03-25T03:38:47;99132.83;;;9.70;97.28
33795;BME280;51430;52.242;21.118;2023-03-25T03:41:22;99134.41;;;9.70;97.05
33795;BME280;51430;52.242;21.118;2023-03-25T03:43:57;99135.99;;;9.66;96.99
33795;BME280;51430;52.242;21.118;2023-03-25T03:47:11;99133.68;;;9.61;97.09
33795;BME280;51430;52.242;21.118;2023-03-25T03:49:41;99124.91;;;9.58;97.07
33795;BME280;51430;52.242;21.118;2023-03-25T03:52:21;99119.01;;;9.56;97.47
33795;BME280;51430;52.242;21.118;2023-03-25T03:54:58;99116.81;;;9.50;97.45
33795;BME280;51430;52.242;21.118;2023-03-25T03:57:41;99112.23;;;9.49;97.54
33795;BME280;51430;52.242;21.118;2023-03-25T04:00:16;99113.19;;;9.44;97.52
33795;BME280;51430;52.242;21.118;2023-03-25T04:02:52;99114.30;;;9.43;97.62
33795;BME280;51430;52.242;21.118;2023-03-25T04:05:27;99126.05;;;9.40;97.85
33795;BME280;51430;52.242;21.118;2023-03-25T04:08:03;99136.42;;;9.41;98.29
33795;BME280;51430;52.242;21.118;2023-03-25T04:10:42;99128.95;;;9.39;98.35
33795;BME280;51430;52.242;21.118;2023-03-25T04:13:14;99131.75;;;9.35;98.62
33795;BME280;51430;52.242;21.118;2023-03-25T04:15:58;99138.38;;;9.39;98.61
33795;BME280;51430;52.242;21.118;2023-03-25T04:18:27;99144.48;;;9.38;98.87
33795;BME280;51430;52.242;21.118;2023-03-25T04:21:09;99145.30;;;9.41;98.73
33795;BME280;51430;52.242;21.118;2023-03-25T04:23:37;99147.64;;;9.38;98.79
33795;BME280;51430;52.242;21.118;2023-03-25T04:26:27;99150.94;;;9.38;98.72
33795;BME280;51430;52.242;21.118;2023-03-25T04:28:56;99153.67;;;9.41;98.82
33795;BME280;51430;52.242;21.118;2023-03-25T04:31:28;99158.15;;;9.43;98.91
33795;BME280;51430;52.242;21.118;2023-03-25T04:34:00;99152.97;;;9.48;98.81
33795;BME280;51430;52.242;21.118;2023-03-25T04:36:29;99151.64;;;9.51;98.72
33795;BME280;51430;52.242;21.118;2023-03-25T04:39:11;99156.52;;;9.55;98.58
33795;BME280;51430;52.242;21.118;2023-03-25T04:41:39;99154.13;;;9.55;98.48
33795;BME280;51430;52.242;21.118;2023-03-25T04:44:07;99149.59;;;9.64;98.35
33795;BME280;51430;52.242;21.118;2023-03-25T04:46:36;99154.30;;;9.73;98.13
33795;BME280;51430;52.242;21.118;2023-03-25T04:49:04;99151.67;;;9.79;97.43
33795;BME280;51430;52.242;21.118;2023-03-25T04:51:33;99145.55;;;9.83;97.34
33795;BME280;51430;52.242;21.118;2023-03-25T04:54:02;99146.84;;;9.90;97.13
33795;BME280;51430;52.242;21.118;2023-03-25T04:56:31;99153.30;;;9.98;96.65
33795;BME280;51430;52.242;21.118;2023-03-25T04:58:58;99153.75;;;10.04;96.48
33795;BME280;51430;52.242;21.118;2023-03-25T05:01:28;99148.05;;;10.15;96.34
33795;BME280;51430;52.242;21.118;2023-03-25T05:04:01;99149.74;;;10.24;95.78
33795;BME280;51430;52.242;21.118;2023-03-25T05:06:35;99152.75;;;10.35;95.53
33795;BME280;51430;52.242;21.118;2023-03-25T05:09:07;99157.33;;;10.45;95.00
33795;BME280;51430;52.242;21.118;2023-03-25T05:11:36;99161.02;;;10.52;94.58
33795;BME280;51430;52.242;21.118;2023-03-25T05:14:07;99160.86;;;10.57;93.76
33795;BME280;51430;52.242;21.118;2023-03-25T05:16:36;99155.08;;;10.53;93.18
33795;BME280;51430;52.242;21.118;2023-03-25T05:19:05;99160.23;;;10.53;93.29
33795;BME280;51430;52.242;21.118;2023-03-25T05:21:38;99164.19;;;10.52;93.10
33795;BME280;51430;52.242;21.118;2023-03-25T05:24:09;99166.20;;;10.51;93.10
33795;BME280;51430;52.242;21.118;2023-03-25T05:26:40;99167.01;;;10.50;93.21
33795;BME280;51430;52.242;21.118;2023-03-25T05:29:11;99166.98;;;10.54;93.09
33795;BME280;51430;52.242;21.118;2023-03-25T05:31:44;99169.73;;;10.58;93.14
33795;BME280;51430;52.242;21.118;2023-03-25T05:34:13;99169.64;;;10.59;92.74
33795;BME280;51430;52.242;21.118;2023-03-25T05:36:44;99170.15;;;10.55;92.77
33795;BME280;51430;52.242;21.118;2023-03-25T05:39:12;99175.77;;;10.62;93.01
33795;BME280;51430;52.242;21.118;2023-03-25T05:41:41;99179.29;;;10.65;92.56
33795;BME280;51430;52.242;21.118;2023-03-25T05:44:12;99181.06;;;10.63;92.45
33795;BME280;51430;52.242;21.118;2023-03-25T05:46:45;99182.38;;;10.58;92.44
33795;BME280;51430;52.242;21.118;2023-03-25T05:49:14;99180.36;;;10.58;92.64
33795;BME280;51430;52.242;21.118;2023-03-25T05:51:42;99181.91;;;10.60;92.85
33795;BME280;51430;52.242;21.118;2023-03-25T05:54:11;99179.05;;;10.52;92.60
33795;BME280;51430;52.242;21.118;2023-03-25T05:56:40;99180.91;;;10.46;92.81
33795;BME280;51430;52.242;21.118;2023-03-25T05:59:08;99186.96;;;10.54;92.79
33795;BME280;51430;52.242;21.118;2023-03-25T06:01:37;99185.62;;;10.65;92.57
33795;BME280;51430;52.242;21.118;2023-03-25T06:04:07;99183.35;;;10.63;92.15
33795;BME280;51430;52.242;21.118;2023-03-25T06:06:38;99186.75;;;10.69;92.22
33795;BME280;51430;52.242;21.118;2023-03-25T06:09:08;99183.27;;;10.74;92.08
33795;BME280;51430;52.242;21.118;2023-03-25T06:11:36;99184.27;;;10.81;91.84
33795;BME280;51430;52.242;21.118;2023-03-25T06:14:06;99186.84;;;10.81;91.61
33795;BME280;51430;52.242;21.118;2023-03-25T06:16:34;99187.49;;;10.70;91.53
33795;BME280;51430;52.242;21.118;2023-03-25T06:19:03;99185.55;;;10.76;91.84
33795;BME280;51430;52.242;21.118;2023-03-25T06:21:31;99188.17;;;10.73;91.88
33795;BME280;51430;52.242;21.118;2023-03-25T06:24:00;99186.02;;;10.89;91.68
33795;BME280;51430;52.242;21.118;2023-03-25T06:26:31;99185.52;;;11.03;91.21
33795;BME280;51430;52.242;21.118;2023-03-25T06:29:02;99183.59;;;11.14;90.61
33795;BME280;51430;52.242;21.118;2023-03-25T06:31:30;99182.71;;;11.18;90.00
33795;BME280;51430;52.242;21.118;2023-03-25T06:34:01;99178.73;;;11.10;89.87
33795;BME280;51430;52.242;21.118;2023-03-25T06:36:29;99176.84;;;11.20;89.93
33795;BME280;51430;52.242;21.118;2023-03-25T06:38:58;99180.83;;;11.38;89.75
33795;BME280;51430;52.242;21.118;2023-03-25T06:41:26;99179.94;;;11.56;88.69
33795;BME280;51430;52.242;21.118;2023-03-25T06:43:55;99186.24;;;11.60;88.45
33795;BME280;51430;52.242;21.118;2023-03-25T06:46:23;99189.15;;;11.82;87.74
33795;BME280;51430;52.242;21.118;2023-03-25T06:48:51;99195.27;;;12.01;86.92
33795;BME280;51430;52.242;21.118;2023-03-25T06:51:19;99194.95;;;12.18;86.02
33795;BME280;51430;52.242;21.118;2023-03-25T06:53:49;99189.55;;;12.39;85.67
33795;BME280;51430;52.242;21.118;2023-03-25T06:56:19;99193.05;;;12.39;85.05
33795;BME280;51430;52.242;21.118;2023-03-25T06:58:49;99198.34;;;12.51;84.72
33795;BME280;51430;52.242;21.118;2023-03-25T07:01:17;99197.59;;;12.39;84.17
33795;BME280;51430;52.242;21.118;2023-03-25T07:03:46;99201.77;;;12.23;84.10
33795;BME280;51430;52.242;21.118;2023-03-25T07:06:21;99192.92;;;12.41;84.82
33795;BME280;51430;52.242;21.118;2023-03-25T07:09:01;99188.54;;;12.69;83.74
33795;BME280;51430;52.242;21.118;2023-03-25T07:11:29;99188.67;;;13.18;82.14
33795;BME280;51430;52.242;21.118;2023-03-25T07:13:58;99185.30;;;13.17;80.15
33795;BME280;51430;52.242;21.118;2023-03-25T07:16:27;99182.66;;;12.99;80.59
33795;BME280;51430;52.242;21.118;2023-03-25T07:18:56;99180.83;;;12.93;81.08
33795;BME280;51430;52.242;21.118;2023-03-25T07:21:28;99179.90;;;12.92;80.92
33795;BME280;51430;52.242;21.118;2023-03-25T07:23:56;99179.85;;;12.87;80.69
33795;BME280;51430;52.242;21.118;2023-03-25T07:26:26;99177.91;;;12.70;81.30
33795;BME280;51430;52.242;21.118;2023-03-25T07:29:03;99180.97;;;12.57;81.96
33795;BME280;51430;52.242;21.118;2023-03-25T07:31:32;99179.66;;;12.52;82.52
33795;BME280;51430;52.242;21.118;2023-03-25T07:34:03;99184.13;;;12.46;82.74
33795;BME280;51430;52.242;21.118;2023-03-25T07:36:38;99180.23;;;12.60;82.46
33795;BME280;51430;52.242;21.118;2023-03-25T07:39:06;99184.04;;;12.99;81.99
33795;BME280;51430;52.242;21.118;2023-03-25T07:41:35;99184.73;;;13.30;80.22
33795;BME280;51430;52.242;21.118;2023-03-25T07:44:03;99183.59;;;13.34;79.60
33795;BME280;51430;52.242;21.118;2023-03-25T07:46:31;99181.45;;;13.67;79.08
33795;BME280;51430;52.242;21.118;2023-03-25T07:48:59;99184.05;;;14.06;77.74
33795;BME280;51430;52.242;21.118;2023-03-25T07:51:43;99182.38;;;14.05;76.32
33795;BME280;51430;52.242;21.118;2023-03-25T07:54:11;99186.56;;;14.15;76.69
33795;BME280;51430;52.242;21.118;2023-03-25T07:56:40;99182.89;;;13.97;76.07
33795;BME280;51430;52.242;21.118;2023-03-25T07:59:08;99182.11;;;13.97;76.58
33795;BME280;51430;52.242;21.118;2023-03-25T08:01:36;99179.70;;;14.22;76.18
33795;BME280;51430;52.242;21.118;2023-03-25T08:04:04;99180.04;;;14.95;74.90
33795;BME280;51430;52.242;21.118;2023-03-25T08:06:32;99183.66;;;15.65;71.73
33795;BME280;51430;52.242;21.118;2023-03-25T08:09:00;99193.32;;;15.74;70.49
33795;BME280;51430;52.242;21.118;2023-03-25T08:11:31;99189.41;;;15.28;70.82
33795;BME280;51430;52.242;21.118;2023-03-25T08:14:01;99189.88;;;14.92;71.69
33795;BME280;51430;52.242;21.118;2023-03-25T08:16:29;99186.73;;;14.75;72.38
33795;BME280;51430;52.242;21.118;2023-03-25T08:18:57;99192.13;;;14.55;72.64
33795;BME280;51430;52.242;21.118;2023-03-25T08:21:28;99194.02;;;15.03;71.97
33795;BME280;51430;52.242;21.118;2023-03-25T08:23:58;99196.46;;;15.42;70.76
33795;BME280;51430;52.242;21.118;2023-03-25T08:26:30;99196.45;;;16.04;68.87
33795;BME280;51430;52.242;21.118;2023-03-25T08:29:07;99193.35;;;17.07;66.50
33795;BME280;51430;52.242;21.118;2023-03-25T08:31:37;99196.98;;;17.17;64.21
33795;BME280;51430;52.242;21.118;2023-03-25T08:34:06;99192.19;;;17.18;63.88
33795;BME280;51430;52.242;21.118;2023-03-25T08:36:34;99195.64;;;17.42;63.33
33795;BME280;51430;52.242;21.118;2023-03-25T08:39:09;99201.61;;;18.07;60.77
33795;BME280;51430;52.242;21.118;2023-03-25T08:41:38;99198.96;;;18.17;57.25
33795;BME280;51430;52.242;21.118;2023-03-25T08:44:07;99202.42;;;17.90;56.79
33795;BME280;51430;52.242;21.118;2023-03-25T08:46:35;99198.59;;;17.41;58.30
33795;BME280;51430;52.242;21.118;2023-03-25T08:49:04;99198.57;;;17.56;58.12
33795;BME280;51430;52.242;21.118;2023-03-25T08:51:33;99194.45;;;17.71;57.80
33795;BME280;51430;52.242;21.118;2023-03-25T08:54:01;99197.91;;;17.98;57.10
33795;BME280;51430;52.242;21.118;2023-03-25T08:56:29;99191.66;;;18.41;56.05
33795;BME280;51430;52.242;21.118;2023-03-25T08:59:00;99193.29;;;18.71;54.45
33795;BME280;51430;52.242;21.118;2023-03-25T09:01:28;99194.57;;;18.87;53.28
33795;BME280;51430;52.242;21.118;2023-03-25T09:03:56;99191.24;;;18.64;53.42
33795;BME280;51430;52.242;21.118;2023-03-25T09:06:31;99187.07;;;18.97;52.08
33795;BME280;51430;52.242;21.118;2023-03-25T09:09:22;99181.95;;;18.23;53.29
33795;BME280;51430;52.242;21.118;2023-03-25T09:11:54;99178.95;;;19.31;52.03
33795;BME280;51430;52.242;21.118;2023-03-25T09:14:22;99181.86;;;20.39;49.17
33795;BME280;51430;52.242;21.118;2023-03-25T09:16:50;99184.98;;;20.92;48.11
33795;BME280;51430;52.242;21.118;2023-03-25T09:19:18;99191.98;;;21.08;45.75
33795;BME280;51430;52.242;21.118;2023-03-25T09:21:46;99184.17;;;20.71;46.39
33795;BME280;51430;52.242;21.118;2023-03-25T09:24:16;99185.90;;;20.48;45.67
33795;BME280;51430;52.242;21.118;2023-03-25T09:26:45;99188.44;;;19.61;48.05
33795;BME280;51430;52.242;21.118;2023-03-25T09:29:13;99183.42;;;20.22;46.92
33795;BME280;51430;52.242;21.118;2023-03-25T09:31:41;99184.02;;;20.30;46.16
33795;BME280;51430;52.242;21.118;2023-03-25T09:34:09;99174.33;;;20.39;46.05
33795;BME280;51430;52.242;21.118;2023-03-25T09:36:37;99174.03;;;20.75;45.64
33795;BME280;51430;52.242;21.118;2023-03-25T09:39:05;99173.45;;;20.23;46.36
33795;BME280;51430;52.242;21.118;2023-03-25T09:47:21;99170.73;;;20.27;46.77
33795;BME280;51430;52.242;21.118;2023-03-25T09:49:57;99172.48;;;19.79;47.56
33795;BME280;51430;52.242;21.118;2023-03-25T09:55:24;99170.38;;;20.34;47.12
33795;BME280;51430;52.242;21.118;2023-03-25T09:57:59;99168.42;;;20.22;46.40
33795;BME280;51430;52.242;21.118;2023-03-25T10:00:29;99170.95;;;19.83;47.78
33795;BME280;51430;52.242;21.118;2023-03-25T10:03:13;99172.63;;;19.79;47.33
33795;BME280;51430;52.242;21.118;2023-03-25T10:15:11;99167.16;;;19.24;48.92
33795;BME280;51430;52.242;21.118;2023-03-25T10:17:28;99162.63;;;19.49;48.84
33795;BME280;51430;52.242;21.118;2023-03-25T10:25:20;99170.77;;;19.66;49.29
33795;BME280;51430;52.242;21.118;2023-03-25T10:27:51;99167.73;;;19.26;50.07
33795;BME280;51430;52.242;21.118;2023-03-25T10:30:34;99165.50;;;18.96;50.16
33795;BME280;51430;52.242;21.118;2023-03-25T10:33:14;99163.80;;;19.60;48.90
33795;BME280;51430;52.242;21.118;2023-03-25T10:35:46;99158.92;;;19.78;48.06
33795;BME280;51430;52.242;21.118;2023-03-25T10:38:22;99154.23;;;20.12;47.82
33795;BME280;51430;52.242;21.118;2023-03-25T10:41:29;99149.08;;;20.85;46.28
33795;BME280;51430;52.242;21.118;2023-03-25T10:43:58;99150.55;;;21.70;43.33
33795;BME280;51430;52.242;21.118;2023-03-25T10:49:06;99161.19;;;24.08;39.62
33795;BME280;51430;52.242;21.118;2023-03-25T10:51:41;99160.81;;;22.28;41.46
33795;BME280;51430;52.242;21.118;2023-03-25T10:54:13;99146.97;;;21.72;42.89
33795;BME280;51430;52.242;21.118;2023-03-25T10:56:50;99149.52;;;21.24;44.59
33795;BME280;51430;52.242;21.118;2023-03-25T10:59:26;99139.11;;;21.12;44.61
33795;BME280;51430;52.242;21.118;2023-03-25T11:01:58;99132.66;;;20.31;46.42
33795;BME280;51430;52.242;21.118;2023-03-25T11:04:33;99129.20;;;20.17;46.86
33795;BME280;51430;52.242;21.118;2023-03-25T11:07:19;99131.59;;;20.25;46.89
33795;BME280;51430;52.242;21.118;2023-03-25T11:09:50;99128.62;;;20.73;46.02
33795;BME280;51430;52.242;21.118;2023-03-25T11:12:22;99127.21;;;20.40;46.09
33795;BME280;51430;52.242;21.118;2023-03-25T11:15:04;99122.34;;;20.19;46.25
33795;BME280;51430;52.242;21.118;2023-03-25T11:17:46;99117.27;;;20.07;46.59
33795;BME280;51430;52.242;21.118;2023-03-25T11:20:27;99118.16;;;19.65;45.94
33795;BME280;51430;52.242;21.118;2023-03-25T11:23:03;99113.75;;;19.32;47.45
33795;BME280;51430;52.242;21.118;2023-03-25T11:25:36;99108.05;;;20.09;45.98
33795;BME280;51430;52.242;21.118;2023-03-25T11:28:12;99106.86;;;20.35;44.70
33795;BME280;51430;52.242;21.118;2023-03-25T11:31:08;99103.40;;;20.23;44.56
33795;BME280;51430;52.242;21.118;2023-03-25T11:33:42;99098.81;;;21.22;43.07
33795;BME280;51430;52.242;21.118;2023-03-25T11:36:12;99097.08;;;22.21;41.72
33795;BME280;51430;52.242;21.118;2023-03-25T11:38:58;99096.31;;;22.73;39.82
33795;BME280;51430;52.242;21.118;2023-03-25T11:41:30;99099.70;;;23.45;38.44
33795;BME280;51430;52.242;21.118;2023-03-25T11:44:02;99093.65;;;21.87;40.72
33795;BME280;51430;52.242;21.118;2023-03-25T11:46:32;99088.83;;;21.90;41.04
33795;BME280;51430;52.242;21.118;2023-03-25T11:49:09;99085.25;;;23.69;38.78
33795;BME280;51430;52.242;21.118;2023-03-25T11:51:41;99086.48;;;23.53;37.43
33795;BME280;51430;52.242;21.118;2023-03-25T11:54:11;99087.56;;;22.88;38.74
33795;BME280;51430;52.242;21.118;2023-03-25T11:56:43;99083.84;;;23.14;38.49
33795;BME280;51430;52.242;21.118;2023-03-25T11:59:21;99079.63;;;22.89;39.32
33795;BME280;51430;52.242;21.118;2023-03-25T12:02:01;99079.52;;;22.83;39.13
33795;BME280;51430;52.242;21.118;2023-03-25T12:04:33;99079.94;;;21.85;41.39
33795;BME280;51430;52.242;21.118;2023-03-25T12:07:08;99075.89;;;21.92;41.62
33795;BME280;51430;52.242;21.118;2023-03-25T12:09:41;99067.79;;;20.90;42.24
33795;BME280;51430;52.242;21.118;2023-03-25T12:12:47;99061.06;;;20.37;43.80
33795;BME280;51430;52.242;21.118;2023-03-25T12:15:41;99058.48;;;19.60;44.72
33795;BME280;51430;52.242;21.118;2023-03-25T12:21:03;99056.08;;;19.29;45.89
33795;BME280;51430;52.242;21.118;2023-03-25T12:30:59;99046.30;;;18.12;49.10
33795;BME280;51430;52.242;21.118;2023-03-25T12:44:59;99024.48;;;17.83;50.78
33795;BME280;51430;52.242;21.118;2023-03-25T12:47:49;99025.00;;;18.42;49.55
33795;BME280;51430;52.242;21.118;2023-03-25T12:53:25;99024.34;;;19.25;47.00
33795;BME280;51430;52.242;21.118;2023-03-25T13:02:32;99011.62;;;19.00;47.99
33795;BME280;51430;52.242;21.118;2023-03-25T13:05:31;99015.08;;;18.94;47.89
33795;BME280;51430;52.242;21.118;2023-03-25T13:08:17;99012.35;;;19.01;47.98
33795;BME280;51430;52.242;21.118;2023-03-25T13:10:55;99008.30;;;19.13;47.63
33795;BME280;51430;52.242;21.118;2023-03-25T13:13:27;99006.46;;;19.32;47.90
33795;BME280;51430;52.242;21.118;2023-03-25T13:16:05;99005.73;;;19.12;47.30
33795;BME280;51430;52.242;21.118;2023-03-25T13:18:42;99007.02;;;18.35;49.63
33795;BME280;51430;52.242;21.118;2023-03-25T13:21:17;99003.87;;;17.68;52.91
33795;BME280;51430;52.242;21.118;2023-03-25T13:24:01;99008.25;;;17.21;54.63
33795;BME280;51430;52.242;21.118;2023-03-25T13:26:34;99024.83;;;16.66;59.19
33795;BME280;51430;52.242;21.118;2023-03-25T13:29:04;99035.55;;;14.28;71.14
33795;BME280;51430;52.242;21.118;2023-03-25T13:31:39;99020.67;;;12.95;82.30
33795;BME280;51430;52.242;21.118;2023-03-25T13:37:03;99008.34;;;12.66;92.10
33795;BME280;51430;52.242;21.118;2023-03-25T13:39:48;99000.30;;;12.65;92.94
33795;BME280;51430;52.242;21.118;2023-03-25T13:44:54;98996.27;;;12.60;94.69
33795;BME280;51430;52.242;21.118;2023-03-25T13:47:29;98992.00;;;12.71;95.05
33795;BME280;51430;52.242;21.118;2023-03-25T13:50:07;98994.62;;;12.71;93.77
33795;BME280;51430;52.242;21.118;2023-03-25T13:52:45;98988.70;;;12.85;91.87
33795;BME280;51430;52.242;21.118;2023-03-25T13:55:25;98984.38;;;13.20;90.88
33795;BME280;51430;52.242;21.118;2023-03-25T14:00:41;98980.77;;;13.92;88.17
33795;BME280;51430;52.242;21.118;2023-03-25T14:08:48;98978.20;;;14.71;86.21
33795;BME280;51430;52.242;21.118;2023-03-25T14:13:57;98987.65;;;14.97;79.19
33795;BME280;51430;52.242;21.118;2023-03-25T14:16:35;98987.58;;;15.69;75.66
33795;BME280;51430;52.242;21.118;2023-03-25T14:19:13;98995.24;;;17.12;70.52
33795;BME280;51430;52.242;21.118;2023-03-25T14:21:49;98995.39;;;17.24;69.49
33795;BME280;51430;52.242;21.118;2023-03-25T14:24:35;98997.95;;;16.71;69.27
33795;BME280;51430;52.242;21.118;2023-03-25T14:27:06;98994.06;;;16.46;70.59
33795;BME280;51430;52.242;21.118;2023-03-25T14:29:42;98998.33;;;16.63;69.29
33795;BME280;51430;52.242;21.118;2023-03-25T14:34:44;98997.43;;;19.46;62.88
33795;BME280;51430;52.242;21.118;2023-03-25T14:39:53;98996.83;;;20.39;54.25
33795;BME280;51430;52.242;21.118;2023-03-25T14:42:41;99007.42;;;20.14;53.90
33795;BME280;51430;52.242;21.118;2023-03-25T14:45:32;99009.15;;;19.86;55.21
33795;BME280;51430;52.242;21.118;2023-03-25T14:48:05;99013.64;;;21.03;51.67
33795;BME280;51430;52.242;21.118;2023-03-25T14:56:40;99004.23;;;20.12;49.62
33795;BME280;51430;52.242;21.118;2023-03-25T14:59:15;99001.79;;;21.33;47.07
33795;BME280;51430;52.242;21.118;2023-03-25T15:01:45;99003.27;;;21.00;46.46
33795;BME280;51430;52.242;21.118;2023-03-25T15:04:26;99003.17;;;19.17;50.42
33795;BME280;51430;52.242;21.118;2023-03-25T15:06:57;99000.44;;;17.82;53.86
33795;BME280;51430;52.242;21.118;2023-03-25T15:09:28;98993.70;;;16.60;56.93
33795;BME280;51430;52.242;21.118;2023-03-25T15:12:02;98996.57;;;16.11;59.34
33795;BME280;51430;52.242;21.118;2023-03-25T15:14:37;99008.91;;;15.73;59.86
33795;BME280;51430;52.242;21.118;2023-03-25T15:17:10;99017.01;;;14.66;60.61
33795;BME280;51430;52.242;21.118;2023-03-25T15:22:28;99031.19;;;13.58;62.46